Time;durP1;ratioP1;P1;durP2;ratioP2;P2;SDS_P1;SDS_P2;PMS_P1;PMS_P2;Temp;Humidity;BMP_temperature;BMP_pressure;BME280_temperature;BME280_humidity;BME280_pressure;Samples;Min_cycle;Max_cycle;Signal;HPM_P1;HPM_P2
2023/04/22 00:01:24;;;;;;;;;;;9.50;99.90;;;;;;7337315;19;111369;-73
2023/04/22 00:03:52;;;;;;;;;;;9.60;99.90;;;;;;7334979;19;109049;-70
2023/04/22 00:06:19;;;;;;;;;;;9.60;99.90;;;;;;7333931;19;109651;-70
2023/04/22 00:08:46;;;;;;;;;;;9.60;99.90;;;;;;7336005;19;109329;-70
2023/04/22 00:11:13;;;;;;;;;;;9.60;99.90;;;;;;7339465;19;111691;-70
2023/04/22 00:13:40;;;;;;;;;;;9.60;99.90;;;;;;7333206;19;108446;-70
2023/04/22 00:16:07;;;;;;;;;;;9.60;99.90;;;;;;7339254;19;109032;-73
2023/04/22 00:18:35;;;;;;;;;;;9.60;99.90;;;;;;7335252;19;112754;-70
2023/04/22 00:21:02;;;;;;;;;;;9.60;99.90;;;;;;7336960;19;108502;-70
2023/04/22 00:23:30;;;;;;;;;;;9.50;99.90;;;;;;7335203;19;109810;-70
2023/04/22 00:25:57;;;;;;;;;;;9.50;99.90;;;;;;7336325;19;109615;-69
2023/04/22 00:28:24;;;;;;;;;;;9.50;99.90;;;;;;7334873;19;109508;-69
2023/04/22 00:30:51;;;;;;;;;;;9.40;99.90;;;;;;7332589;19;108993;-69
2023/04/22 00:33:18;;;;;;;;;;;9.50;99.90;;;;;;7341466;19;110049;-72
2023/04/22 00:35:45;;;;;;;;;;;9.50;99.90;;;;;;7336592;19;113706;-73
2023/04/22 00:38:12;;;;;;;;;;;9.50;99.90;;;;;;7328683;19;110453;-75
2023/04/22 00:40:39;;;;;;;;;;;9.40;99.90;;;;;;7333091;19;109383;-72
2023/04/22 00:48:38;;;;;;;;;;;9.40;99.90;;;;;;7329907;19;112634;-69
2023/04/22 00:51:05;;;;;;;;;;;9.40;99.90;;;;;;7333637;19;109287;-69
2023/04/22 00:53:32;;;;;;;;;;;9.40;99.90;;;;;;7334770;19;110252;-69
2023/04/22 00:55:59;;;;;;;;;;;9.40;99.90;;;;;;7334241;19;108755;-69
2023/04/22 00:58:27;;;;;;;;;;;9.40;99.90;;;;;;7331210;19;110360;-69
2023/04/22 01:00:54;;;;;;;;;;;9.40;99.90;;;;;;7330544;19;108500;-63
2023/04/22 01:03:22;;;;;;;;;;;9.40;99.90;;;;;;7333106;19;109443;-63
2023/04/22 01:05:50;;;;;;;;;;;9.40;99.90;;;;;;7331867;19;109155;-63
2023/04/22 01:08:17;;;;;;;;;;;9.40;99.90;;;;;;7329357;19;108449;-63
2023/04/22 01:10:44;;;;;;;;;;;9.40;99.90;;;;;;7331110;19;111713;-64
2023/04/22 01:13:11;;;;;;;;;;;9.40;99.90;;;;;;7332701;19;109119;-63
2023/04/22 01:15:39;;;;;;;;;;;9.50;99.90;;;;;;7336543;19;111652;-62
2023/04/22 01:18:06;;;;;;;;;;;9.50;99.90;;;;;;7331862;19;109101;-62
2023/04/22 01:20:33;;;;;;;;;;;9.40;99.90;;;;;;7333207;19;108662;-62
2023/04/22 01:23:02;;;;;;;;;;;9.40;99.90;;;;;;7339512;19;108738;-62
2023/04/22 01:25:29;;;;;;;;;;;9.40;99.90;;;;;;7340284;19;109145;-65
2023/04/22 01:27:57;;;;;;;;;;;9.40;99.90;;;;;;7338731;19;109952;-64
2023/04/22 01:30:24;;;;;;;;;;;9.40;99.90;;;;;;7338139;19;111676;-69
2023/04/22 01:32:51;;;;;;;;;;;9.40;99.90;;;;;;7339735;19;109334;-63
2023/04/22 01:35:19;;;;;;;;;;;9.40;99.90;;;;;;7339390;19;108531;-62
2023/04/22 01:37:45;;;;;;;;;;;9.30;99.90;;;;;;7343901;19;109878;-63
2023/04/22 01:40:13;;;;;;;;;;;9.30;99.90;;;;;;7343040;19;109257;-63
2023/04/22 01:42:40;;;;;;;;;;;9.30;99.90;;;;;;7340337;19;108259;-62
2023/04/22 01:45:07;;;;;;;;;;;9.30;99.90;;;;;;7340667;19;109280;-62
2023/04/22 01:47:34;;;;;;;;;;;9.30;99.90;;;;;;7333846;19;109021;-63
2023/04/22 01:50:01;;;;;;;;;;;9.20;99.90;;;;;;7341323;19;108901;-62
2023/04/22 01:52:29;;;;;;;;;;;9.20;99.90;;;;;;7341291;19;110119;-62
2023/04/22 01:54:56;;;;;;;;;;;9.20;99.90;;;;;;7341174;19;109501;-62
2023/04/22 01:57:23;;;;;;;;;;;9.30;99.90;;;;;;7338631;19;109115;-63
2023/04/22 01:59:50;;;;;;;;;;;9.30;99.90;;;;;;7346378;19;113029;-62
2023/04/22 02:02:17;;;;;;;;;;;9.30;99.90;;;;;;7340606;19;109973;-62
2023/04/22 02:04:44;;;;;;;;;;;9.30;99.90;;;;;;7338452;19;109142;-62
2023/04/22 02:07:11;;;;;;;;;;;9.30;99.90;;;;;;7340770;19;108673;-62
2023/04/22 02:09:38;;;;;;;;;;;9.20;99.90;;;;;;7338997;19;108865;-62
2023/04/22 02:12:06;;;;;;;;;;;9.20;99.90;;;;;;7338942;19;109346;-62
2023/04/22 02:14:33;;;;;;;;;;;9.10;99.90;;;;;;7338363;19;108687;-62
2023/04/22 02:17:01;;;;;;;;;;;9.10;99.90;;;;;;7339345;19;109111;-62
2023/04/22 02:19:28;;;;;;;;;;;9.10;99.90;;;;;;7337071;19;109780;-62
2023/04/22 02:21:55;;;;;;;;;;;9.20;99.90;;;;;;7344915;19;110073;-62
2023/04/22 02:24:22;;;;;;;;;;;9.20;99.90;;;;;;7337031;19;109338;-62
2023/04/22 02:26:49;;;;;;;;;;;9.20;99.90;;;;;;7341340;19;108329;-62
2023/04/22 02:29:16;;;;;;;;;;;9.20;99.90;;;;;;7339252;19;109360;-62
2023/04/22 02:31:43;;;;;;;;;;;9.10;99.90;;;;;;7337972;19;109953;-62
2023/04/22 02:34:10;;;;;;;;;;;9.10;99.90;;;;;;7339714;19;113061;-62
2023/04/22 02:36:37;;;;;;;;;;;9.20;99.90;;;;;;7335878;19;108392;-62
2023/04/22 02:39:05;;;;;;;;;;;9.20;99.90;;;;;;7340968;19;109661;-62
2023/04/22 02:41:31;;;;;;;;;;;9.30;99.90;;;;;;7336130;19;108855;-62
2023/04/22 02:43:58;;;;;;;;;;;9.30;99.90;;;;;;7342573;19;110003;-62
2023/04/22 02:46:25;;;;;;;;;;;9.30;99.90;;;;;;7339358;19;108528;-62
2023/04/22 02:48:52;;;;;;;;;;;9.20;99.90;;;;;;7336581;19;109519;-62
2023/04/22 02:51:20;;;;;;;;;;;9.30;99.90;;;;;;7339249;19;109517;-62
2023/04/22 02:53:47;;;;;;;;;;;9.30;99.90;;;;;;7338980;19;108936;-62
2023/04/22 02:56:14;;;;;;;;;;;9.30;99.90;;;;;;7339439;19;108719;-62
2023/04/22 02:58:41;;;;;;;;;;;9.30;99.90;;;;;;7338876;19;110959;-62
2023/04/22 03:01:08;;;;;;;;;;;9.30;99.90;;;;;;7335543;19;110107;-63
2023/04/22 03:03:35;;;;;;;;;;;9.20;99.90;;;;;;7339692;19;109481;-62
2023/04/22 03:06:03;;;;;;;;;;;9.10;99.90;;;;;;7339590;19;108860;-62
2023/04/22 03:08:30;;;;;;;;;;;9.10;99.90;;;;;;7338355;19;108779;-62
2023/04/22 03:10:57;;;;;;;;;;;9.00;99.90;;;;;;7337297;19;109329;-62
2023/04/22 03:13:24;;;;;;;;;;;9.00;99.90;;;;;;7336916;19;108330;-63
2023/04/22 03:15:51;;;;;;;;;;;9.00;99.90;;;;;;7338067;19;109223;-62
2023/04/22 03:18:18;;;;;;;;;;;9.00;99.90;;;;;;7339297;19;109520;-62
2023/04/22 03:20:45;;;;;;;;;;;9.00;99.90;;;;;;7338437;19;109251;-62
2023/04/22 03:23:12;;;;;;;;;;;9.10;99.90;;;;;;7339105;19;108632;-62
2023/04/22 03:25:39;;;;;;;;;;;9.10;99.90;;;;;;7340861;19;110921;-62
2023/04/22 03:28:07;;;;;;;;;;;9.10;99.90;;;;;;7337297;19;109190;-63
2023/04/22 03:30:33;;;;;;;;;;;9.20;99.90;;;;;;7335048;19;109173;-62
2023/04/22 03:33:01;;;;;;;;;;;9.10;99.90;;;;;;7335609;19;109773;-63
2023/04/22 03:35:28;;;;;;;;;;;9.10;99.90;;;;;;7338961;19;109450;-62
2023/04/22 03:37:55;;;;;;;;;;;9.10;99.90;;;;;;7335408;19;109173;-62
2023/04/22 03:40:22;;;;;;;;;;;9.10;99.90;;;;;;7336679;19;109254;-62
2023/04/22 03:42:49;;;;;;;;;;;9.10;99.90;;;;;;7334483;19;109512;-63
2023/04/22 03:45:16;;;;;;;;;;;9.10;99.90;;;;;;7332113;19;110156;-62
2023/04/22 03:47:43;;;;;;;;;;;9.10;99.90;;;;;;7340679;19;108791;-62
2023/04/22 03:50:10;;;;;;;;;;;9.10;99.90;;;;;;7335501;19;109096;-62
2023/04/22 03:52:37;;;;;;;;;;;9.20;99.90;;;;;;7335974;19;109659;-62
2023/04/22 03:55:04;;;;;;;;;;;9.10;99.90;;;;;;7336291;19;108255;-62
2023/04/22 03:57:31;;;;;;;;;;;9.10;99.90;;;;;;7336817;19;109150;-62
2023/04/22 03:59:58;;;;;;;;;;;9.20;99.90;;;;;;7335457;19;110336;-62
2023/04/22 04:02:25;;;;;;;;;;;9.10;99.90;;;;;;7340678;19;108269;-62
2023/04/22 04:04:52;;;;;;;;;;;9.20;99.90;;;;;;7334291;19;109504;-63
2023/04/22 04:07:20;;;;;;;;;;;9.20;99.90;;;;;;7335875;19;108476;-62
2023/04/22 04:09:47;;;;;;;;;;;9.20;99.90;;;;;;7342077;19;110029;-63
2023/04/22 04:12:14;;;;;;;;;;;9.20;99.90;;;;;;7335733;19;108638;-62
2023/04/22 04:14:41;;;;;;;;;;;9.20;99.90;;;;;;7334112;19;108527;-63
2023/04/22 04:17:08;;;;;;;;;;;9.20;99.90;;;;;;7335172;19;110607;-63
2023/04/22 04:19:35;;;;;;;;;;;9.30;99.90;;;;;;7338289;19;108349;-62
2023/04/22 04:22:02;;;;;;;;;;;9.30;99.90;;;;;;7336602;19;109089;-63
2023/04/22 04:24:29;;;;;;;;;;;9.30;99.90;;;;;;7337356;19;110563;-63
2023/04/22 04:26:56;;;;;;;;;;;9.30;99.90;;;;;;7333532;19;108790;-62
2023/04/22 04:29:24;;;;;;;;;;;9.30;99.90;;;;;;7339396;19;108818;-62
2023/04/22 04:31:51;;;;;;;;;;;9.30;99.90;;;;;;7337814;19;109832;-62
2023/04/22 04:34:18;;;;;;;;;;;9.30;99.90;;;;;;7331565;19;108300;-62
2023/04/22 04:36:45;;;;;;;;;;;9.40;99.90;;;;;;7330756;19;110836;-63
2023/04/22 04:39:16;;;;;;;;;;;9.40;99.90;;;;;;7337543;19;108745;-62
2023/04/22 04:41:43;;;;;;;;;;;9.30;99.90;;;;;;7333659;19;108547;-63
2023/04/22 04:44:11;;;;;;;;;;;9.40;99.90;;;;;;7335017;19;111223;-63
2023/04/22 04:46:38;;;;;;;;;;;9.40;99.90;;;;;;7333127;19;108685;-63
2023/04/22 04:49:08;;;;;;;;;;;9.40;99.90;;;;;;7334679;19;109427;-62
2023/04/22 04:51:35;;;;;;;;;;;9.40;99.90;;;;;;7334231;19;110204;-63
2023/04/22 04:54:02;;;;;;;;;;;9.40;99.90;;;;;;7337777;19;108640;-62
2023/04/22 04:56:29;;;;;;;;;;;9.40;99.90;;;;;;7332955;19;109617;-62
2023/04/22 04:58:56;;;;;;;;;;;9.40;99.90;;;;;;7344317;19;108632;-62
2023/04/22 05:01:24;;;;;;;;;;;9.30;99.90;;;;;;7339759;19;109360;-63
2023/04/22 05:03:51;;;;;;;;;;;9.30;99.90;;;;;;7341654;19;109198;-63
2023/04/22 05:06:18;;;;;;;;;;;9.30;99.90;;;;;;7341377;19;110281;-63
2023/04/22 05:08:45;;;;;;;;;;;9.30;99.90;;;;;;7340176;19;108745;-64
2023/04/22 05:11:12;;;;;;;;;;;9.30;99.90;;;;;;7339055;19;109251;-64
2023/04/22 05:13:39;;;;;;;;;;;9.30;99.90;;;;;;7344120;19;108371;-66
2023/04/22 05:16:06;;;;;;;;;;;9.30;99.90;;;;;;7341447;19;109560;-70
2023/04/22 05:18:33;;;;;;;;;;;9.30;99.90;;;;;;7340384;19;109135;-70
2023/04/22 05:21:03;;;;;;;;;;;9.30;99.90;;;;;;7343118;19;109169;-72
2023/04/22 05:23:30;;;;;;;;;;;9.30;99.90;;;;;;7338860;19;109161;-72
2023/04/22 05:25:57;;;;;;;;;;;9.20;99.90;;;;;;7341215;19;110466;-63
2023/04/22 05:28:24;;;;;;;;;;;9.30;99.90;;;;;;7340327;19;109100;-64
2023/04/22 05:30:51;;;;;;;;;;;9.30;99.90;;;;;;7339880;19;109697;-66
2023/04/22 05:33:18;;;;;;;;;;;9.30;99.90;;;;;;7339073;19;109895;-63
2023/04/22 05:35:45;;;;;;;;;;;9.30;99.90;;;;;;7346955;19;108474;-63
2023/04/22 05:38:12;;;;;;;;;;;9.40;99.90;;;;;;7338984;19;108762;-63
2023/04/22 05:40:39;;;;;;;;;;;9.50;99.90;;;;;;7338906;19;109577;-63
2023/04/22 05:43:06;;;;;;;;;;;9.50;99.90;;;;;;7339064;19;109165;-66
2023/04/22 05:45:33;;;;;;;;;;;9.50;99.90;;;;;;7342578;19;108698;-65
2023/04/22 05:48:00;;;;;;;;;;;9.60;99.90;;;;;;7340428;19;111463;-67
2023/04/22 05:50:28;;;;;;;;;;;9.60;99.90;;;;;;7339133;19;109510;-65
2023/04/22 05:52:55;;;;;;;;;;;9.60;99.90;;;;;;7340748;19;109498;-67
2023/04/22 05:55:22;;;;;;;;;;;9.60;99.90;;;;;;7340832;19;109660;-64
2023/04/22 05:57:50;;;;;;;;;;;9.70;99.90;;;;;;7345677;19;109106;-62
2023/04/22 06:00:17;;;;;;;;;;;9.70;99.90;;;;;;7338952;19;109112;-65
2023/04/22 06:02:44;;;;;;;;;;;9.80;99.90;;;;;;7338970;19;109213;-65
2023/04/22 06:05:11;;;;;;;;;;;9.90;99.90;;;;;;7343197;19;109193;-63
2023/04/22 06:07:39;;;;;;;;;;;10.00;99.90;;;;;;7339330;19;108752;-63
2023/04/22 06:10:07;;;;;;;;;;;10.10;99.90;;;;;;7342098;19;109314;-63
2023/04/22 06:12:34;;;;;;;;;;;10.10;99.90;;;;;;7340415;19;108317;-63
2023/04/22 06:15:01;;;;;;;;;;;10.20;99.90;;;;;;7340866;19;108335;-65
2023/04/22 06:17:28;;;;;;;;;;;10.30;99.90;;;;;;7338735;19;109547;-65
2023/04/22 06:19:55;;;;;;;;;;;10.50;99.90;;;;;;7348002;19;108445;-65
2023/04/22 06:22:22;;;;;;;;;;;10.60;99.90;;;;;;7341180;19;109622;-66
2023/04/22 06:24:49;;;;;;;;;;;10.70;99.90;;;;;;7339246;19;109545;-64
2023/04/22 06:27:16;;;;;;;;;;;10.80;99.90;;;;;;7338784;19;110341;-65
2023/04/22 06:29:43;;;;;;;;;;;10.80;99.90;;;;;;7338115;19;110968;-80
2023/04/22 06:32:10;;;;;;;;;;;10.80;99.90;;;;;;7339756;19;108739;-83
2023/04/22 06:34:37;;;;;;;;;;;11.00;99.90;;;;;;7342435;19;109735;-82
2023/04/22 06:37:05;;;;;;;;;;;11.10;99.90;;;;;;7338680;19;109711;-64
2023/04/22 06:39:32;;;;;;;;;;;11.20;99.90;;;;;;7339663;19;110055;-64
2023/04/22 06:42:00;;;;;;;;;;;11.30;99.90;;;;;;7343821;19;108698;-62
2023/04/22 06:44:27;;;;;;;;;;;11.40;99.90;;;;;;7340363;19;108970;-62
2023/04/22 06:46:54;;;;;;;;;;;11.50;99.90;;;;;;7338560;19;110897;-62
2023/04/22 06:49:23;;;;;;;;;;;11.60;99.90;;;;;;7339004;19;111155;-62
2023/04/22 06:51:50;;;;;;;;;;;11.70;99.90;;;;;;7340586;19;112387;-62
2023/04/22 06:54:17;;;;;;;;;;;11.80;99.90;;;;;;7339068;19;112645;-62
2023/04/22 06:56:44;;;;;;;;;;;11.90;99.90;;;;;;7335999;19;110424;-63
2023/04/22 06:59:12;;;;;;;;;;;12.00;99.90;;;;;;7338031;19;110489;-62
2023/04/22 07:01:38;;;;;;;;;;;12.10;99.90;;;;;;7341464;19;109730;-63
2023/04/22 07:04:05;;;;;;;;;;;12.30;99.90;;;;;;7338552;19;109261;-62
2023/04/22 07:06:32;;;;;;;;;;;12.40;99.90;;;;;;7339464;19;108543;-63
2023/04/22 07:08:59;;;;;;;;;;;12.40;99.90;;;;;;7338481;19;109877;-62
2023/04/22 07:11:27;;;;;;;;;;;12.50;99.90;;;;;;7337195;19;108836;-63
2023/04/22 07:13:54;;;;;;;;;;;12.60;99.90;;;;;;7338227;19;108881;-63
2023/04/22 07:16:21;;;;;;;;;;;12.70;99.90;;;;;;7334807;19;110089;-63
2023/04/22 07:18:48;;;;;;;;;;;12.80;99.90;;;;;;7335203;19;109092;-66
2023/04/22 07:21:15;;;;;;;;;;;12.90;99.90;;;;;;7336907;19;109607;-63
2023/04/22 07:23:42;;;;;;;;;;;13.00;99.90;;;;;;7339992;19;110221;-64
2023/04/22 07:26:09;;;;;;;;;;;13.10;99.90;;;;;;7337535;19;109018;-63
2023/04/22 07:28:36;;;;;;;;;;;13.20;99.90;;;;;;7335198;19;110241;-64
2023/04/22 07:31:03;;;;;;;;;;;13.30;99.90;;;;;;7338665;19;109507;-63
2023/04/22 07:33:30;;;;;;;;;;;13.40;99.90;;;;;;7337080;19;108720;-63
2023/04/22 07:35:57;;;;;;;;;;;13.50;99.90;;;;;;7338037;19;109749;-63
2023/04/22 07:38:24;;;;;;;;;;;13.60;99.90;;;;;;7334572;19;109063;-63
2023/04/22 07:40:51;;;;;;;;;;;13.70;99.90;;;;;;7335692;19;109590;-63
2023/04/22 07:43:18;;;;;;;;;;;13.80;99.90;;;;;;7338600;19;110537;-63
2023/04/22 07:45:45;;;;;;;;;;;14.00;99.90;;;;;;7336593;19;110504;-63
2023/04/22 07:48:12;;;;;;;;;;;14.10;99.90;;;;;;7336103;19;109608;-63
2023/04/22 07:50:39;;;;;;;;;;;14.10;99.90;;;;;;7335464;19;108875;-63
2023/04/22 07:53:06;;;;;;;;;;;14.20;99.90;;;;;;7333229;19;110078;-63
2023/04/22 07:55:33;;;;;;;;;;;14.40;99.90;;;;;;7337223;19;109586;-63
2023/04/22 07:58:05;;;;;;;;;;;14.40;99.90;;;;;;7338038;19;108828;-63
2023/04/22 08:00:33;;;;;;;;;;;14.50;99.90;;;;;;7335167;19;109383;-63
2023/04/22 08:03:00;;;;;;;;;;;14.40;99.90;;;;;;7334263;19;110710;-63
2023/04/22 08:05:27;;;;;;;;;;;14.40;99.90;;;;;;7336239;19;108572;-63
2023/04/22 08:07:54;;;;;;;;;;;14.50;99.90;;;;;;7338887;19;109483;-63
2023/04/22 08:10:21;;;;;;;;;;;14.60;99.90;;;;;;7336158;19;108442;-64
2023/04/22 08:12:48;;;;;;;;;;;14.60;99.90;;;;;;7335260;19;109471;-64
2023/04/22 08:15:15;;;;;;;;;;;14.60;99.90;;;;;;7335403;19;109147;-63
2023/04/22 08:17:43;;;;;;;;;;;14.60;99.90;;;;;;7335959;19;108722;-63
2023/04/22 08:20:10;;;;;;;;;;;14.60;99.90;;;;;;7335317;19;109274;-64
2023/04/22 08:22:37;;;;;;;;;;;14.60;99.90;;;;;;7335201;19;109141;-63
2023/04/22 08:25:05;;;;;;;;;;;14.70;99.90;;;;;;7337699;19;108392;-65
2023/04/22 08:27:32;;;;;;;;;;;14.80;99.90;;;;;;7335161;19;108450;-65
2023/04/22 08:29:59;;;;;;;;;;;14.90;99.90;;;;;;7341622;19;110583;-61
2023/04/22 08:32:26;;;;;;;;;;;15.00;99.90;;;;;;7334262;19;108271;-69
2023/04/22 08:34:53;;;;;;;;;;;15.20;99.90;;;;;;7336248;19;109176;-65
2023/04/22 08:37:30;;;;;;;;;;;15.30;99.90;;;;;;7336064;19;108837;-65
2023/04/22 08:39:57;;;;;;;;;;;15.60;99.90;;;;;;7337566;19;108734;-65
2023/04/22 08:42:25;;;;;;;;;;;15.80;99.90;;;;;;7336361;19;110555;-65
2023/04/22 08:44:55;;;;;;;;;;;16.20;99.90;;;;;;7338661;19;108333;-65
2023/04/22 08:47:23;;;;;;;;;;;16.30;99.90;;;;;;7335551;19;108630;-65
2023/04/22 08:49:52;;;;;;;;;;;16.40;99.90;;;;;;7338387;19;109458;-63
2023/04/22 08:52:20;;;;;;;;;;;16.50;99.90;;;;;;7340433;19;108371;-64
2023/04/22 08:54:47;;;;;;;;;;;16.50;99.90;;;;;;7333239;19;110059;-66
2023/04/22 08:57:15;;;;;;;;;;;16.50;99.90;;;;;;7336446;19;108599;-66
2023/04/22 08:59:42;;;;;;;;;;;16.70;99.90;;;;;;7332221;19;109003;-68
2023/04/22 09:02:27;;;;;;;;;;;16.80;99.90;;;;;;7336005;19;110179;-65
2023/04/22 09:04:55;;;;;;;;;;;16.90;99.90;;;;;;7333955;19;108745;-65
2023/04/22 09:07:23;;;;;;;;;;;16.90;99.90;;;;;;7336329;19;110206;-67
2023/04/22 09:09:51;;;;;;;;;;;16.90;99.90;;;;;;7335388;19;110200;-64
2023/04/22 09:12:18;;;;;;;;;;;17.00;99.90;;;;;;7340865;19;111077;-62
2023/04/22 09:14:45;;;;;;;;;;;17.20;99.90;;;;;;7334869;19;109184;-62
2023/04/22 09:17:17;;;;;;;;;;;17.20;99.90;;;;;;7332386;19;108396;-64
2023/04/22 09:19:44;;;;;;;;;;;17.30;99.90;;;;;;7333549;19;110421;-76
2023/04/22 09:22:14;;;;;;;;;;;17.30;99.90;;;;;;7333299;19;109100;-67
2023/04/22 09:24:50;;;;;;;;;;;17.50;99.90;;;;;;7336817;19;108778;-73
2023/04/22 09:27:18;;;;;;;;;;;17.50;99.90;;;;;;7335016;19;109455;-68
2023/04/22 09:29:49;;;;;;;;;;;17.60;99.90;;;;;;7335859;19;108925;-73
2023/04/22 09:32:16;;;;;;;;;;;17.80;99.90;;;;;;7336655;19;108967;-77
2023/04/22 09:34:50;;;;;;;;;;;18.00;99.90;;;;;;7339022;19;108672;-80
2023/04/22 09:37:19;;;;;;;;;;;18.00;99.90;;;;;;7334465;19;108888;-78
2023/04/22 09:39:49;;;;;;;;;;;18.10;99.90;;;;;;7332607;19;108715;-70
2023/04/22 09:42:19;;;;;;;;;;;18.10;99.90;;;;;;7332890;19;109192;-72
2023/04/22 09:44:47;;;;;;;;;;;18.20;99.90;;;;;;7340823;19;108518;-73
2023/04/22 09:47:14;;;;;;;;;;;18.20;99.90;;;;;;7339323;19;109733;-72
2023/04/22 09:49:45;;;;;;;;;;;18.20;99.90;;;;;;7340756;19;109203;-74
2023/04/22 09:52:20;;;;;;;;;;;18.20;99.90;;;;;;7342057;19;108834;-66
2023/04/22 09:54:53;;;;;;;;;;;18.20;99.90;;;;;;7339744;19;109531;-67
2023/04/22 09:57:20;;;;;;;;;;;18.20;99.90;;;;;;7347635;19;110247;-77
2023/04/22 09:59:51;;;;;;;;;;;18.20;99.90;;;;;;7338571;19;110931;-68
2023/04/22 10:02:27;;;;;;;;;;;18.10;99.90;;;;;;7339811;19;109596;-70
2023/04/22 10:04:55;;;;;;;;;;;18.00;99.90;;;;;;7339034;19;108382;-69
2023/04/22 10:07:23;;;;;;;;;;;17.90;99.90;;;;;;7341700;19;110527;-72
2023/04/22 10:09:50;;;;;;;;;;;17.80;99.90;;;;;;7334093;19;109082;-69
2023/04/22 10:12:17;;;;;;;;;;;17.70;99.90;;;;;;7342489;19;108647;-65
2023/04/22 10:14:55;;;;;;;;;;;17.50;99.90;;;;;;7340755;19;108862;-66
2023/04/22 10:17:22;;;;;;;;;;;17.50;99.90;;;;;;7341265;19;109254;-65
2023/04/22 10:19:50;;;;;;;;;;;17.30;99.90;;;;;;7346388;19;108628;-63
2023/04/22 10:22:17;;;;;;;;;;;17.20;99.90;;;;;;7341300;19;109696;-65
2023/04/22 10:24:46;;;;;;;;;;;17.20;99.90;;;;;;7339985;19;109610;-61
2023/04/22 10:27:19;;;;;;;;;;;17.10;99.90;;;;;;7341635;19;109539;-63
2023/04/22 10:29:46;;;;;;;;;;;17.10;99.90;;;;;;7337345;19;111635;-63
2023/04/22 10:32:16;;;;;;;;;;;17.10;99.90;;;;;;7340868;19;108407;-63
2023/04/22 10:34:45;;;;;;;;;;;17.10;99.90;;;;;;7339534;19;109155;-63
2023/04/22 10:37:13;;;;;;;;;;;17.10;99.90;;;;;;7340496;19;109896;-64
2023/04/22 10:39:41;;;;;;;;;;;17.00;99.90;;;;;;7340433;19;109785;-63
2023/04/22 10:42:10;;;;;;;;;;;17.00;99.90;;;;;;7344597;19;109126;-63
2023/04/22 10:44:47;;;;;;;;;;;16.90;99.90;;;;;;7340716;19;109359;-63
2023/04/22 10:47:25;;;;;;;;;;;16.90;99.90;;;;;;7338214;19;108644;-63
2023/04/22 10:50:08;;;;;;;;;;;16.80;99.90;;;;;;7337771;19;108759;-62
2023/04/22 10:52:35;;;;;;;;;;;16.80;99.90;;;;;;7340126;19;108390;-63
2023/04/22 10:55:02;;;;;;;;;;;16.70;99.90;;;;;;7337698;19;109108;-63
2023/04/22 10:57:36;;;;;;;;;;;16.70;99.90;;;;;;7338504;19;110213;-63
2023/04/22 11:00:21;;;;;;;;;;;16.60;99.90;;;;;;7337663;19;108637;-63
2023/04/22 11:02:53;;;;;;;;;;;16.50;99.90;;;;;;7337423;19;109363;-63
2023/04/22 11:05:25;;;;;;;;;;;16.50;99.90;;;;;;7344708;19;113659;-63
2023/04/22 11:07:54;;;;;;;;;;;16.50;99.90;;;;;;7338644;19;109329;-63
2023/04/22 11:10:41;;;;;;;;;;;16.50;99.90;;;;;;7336839;19;109127;-63
2023/04/22 11:13:14;;;;;;;;;;;16.50;99.90;;;;;;7337374;19;109416;-63
2023/04/22 11:15:42;;;;;;;;;;;16.50;99.90;;;;;;7336209;19;108619;-63
2023/04/22 11:18:12;;;;;;;;;;;16.50;99.90;;;;;;7337988;19;109664;-63
2023/04/22 11:20:39;;;;;;;;;;;16.50;99.90;;;;;;7336648;19;108800;-63
2023/04/22 11:23:06;;;;;;;;;;;16.50;99.90;;;;;;7337857;19;110928;-69
2023/04/22 11:25:33;;;;;;;;;;;16.50;99.90;;;;;;7342318;19;109342;-69
2023/04/22 11:28:00;;;;;;;;;;;16.40;99.90;;;;;;7336667;19;109396;-66
2023/04/22 11:30:27;;;;;;;;;;;16.40;99.90;;;;;;7335675;19;109291;-67
2023/04/22 11:32:56;;;;;;;;;;;16.40;99.90;;;;;;7336515;19;110287;-70
2023/04/22 11:35:25;;;;;;;;;;;16.40;99.90;;;;;;7338227;19;108691;-67
2023/04/22 11:37:54;;;;;;;;;;;16.40;99.90;;;;;;7335747;19;109907;-68
2023/04/22 11:40:24;;;;;;;;;;;16.40;99.90;;;;;;7339820;19;108900;-67
2023/04/22 11:42:55;;;;;;;;;;;16.40;99.90;;;;;;7336873;19;108810;-72
2023/04/22 11:45:22;;;;;;;;;;;16.40;99.90;;;;;;7336769;19;110378;-69
2023/04/22 11:47:50;;;;;;;;;;;16.40;99.90;;;;;;7343877;19;108656;-74
2023/04/22 11:50:19;;;;;;;;;;;16.40;99.90;;;;;;7337246;19;110509;-69
2023/04/22 11:52:50;;;;;;;;;;;16.40;99.90;;;;;;7337483;19;108746;-63
2023/04/22 11:55:21;;;;;;;;;;;16.40;99.90;;;;;;7336305;19;109772;-69
2023/04/22 11:57:53;;;;;;;;;;;16.40;99.90;;;;;;7335846;19;109560;-76
2023/04/22 12:00:21;;;;;;;;;;;16.40;99.90;;;;;;7336092;19;108579;-63
2023/04/22 12:02:55;;;;;;;;;;;16.40;99.90;;;;;;7336335;19;109453;-69
2023/04/22 12:05:39;;;;;;;;;;;16.30;99.90;;;;;;7335946;19;109305;-63
2023/04/22 12:08:07;;;;;;;;;;;16.40;99.90;;;;;;7335244;19;109366;-65
2023/04/22 12:10:38;;;;;;;;;;;16.40;99.90;;;;;;7342927;19;109213;-64
2023/04/22 12:13:06;;;;;;;;;;;16.40;99.90;;;;;;7339032;19;112922;-76
2023/04/22 12:15:37;;;;;;;;;;;16.40;99.90;;;;;;7336450;19;110182;-64
2023/04/22 12:18:04;;;;;;;;;;;16.40;99.90;;;;;;7337338;19;109492;-67
2023/04/22 12:20:34;;;;;;;;;;;16.50;99.90;;;;;;7334975;19;108853;-65
2023/04/22 12:23:04;;;;;;;;;;;16.50;99.90;;;;;;7335894;19;108305;-65
2023/04/22 12:25:32;;;;;;;;;;;16.40;99.90;;;;;;7333982;19;110110;-65
2023/04/22 12:28:00;;;;;;;;;;;16.40;99.90;;;;;;7334951;19;109475;-65
2023/04/22 12:30:27;;;;;;;;;;;16.40;99.90;;;;;;7335066;19;108691;-65
2023/04/22 12:32:54;;;;;;;;;;;16.40;99.90;;;;;;7337929;19;110008;-66
2023/04/22 12:35:21;;;;;;;;;;;16.40;99.90;;;;;;7334637;19;108784;-65
2023/04/22 12:37:48;;;;;;;;;;;16.40;99.90;;;;;;7331376;19;109547;-65
2023/04/22 12:40:17;;;;;;;;;;;16.30;99.90;;;;;;7332986;19;110982;-65
2023/04/22 12:42:44;;;;;;;;;;;16.30;99.90;;;;;;7333992;19;108837;-65
2023/04/22 12:45:11;;;;;;;;;;;16.30;99.90;;;;;;7332968;19;110454;-66
2023/04/22 12:47:38;;;;;;;;;;;16.20;99.90;;;;;;7332764;19;108767;-66
2023/04/22 12:50:05;;;;;;;;;;;16.20;99.90;;;;;;7332188;19;108949;-66
2023/04/22 12:52:33;;;;;;;;;;;16.20;99.90;;;;;;7334264;19;110571;-67
2023/04/22 12:55:00;;;;;;;;;;;16.20;99.90;;;;;;7338249;19;109013;-66
2023/04/22 12:57:27;;;;;;;;;;;16.20;99.90;;;;;;7334400;19;110352;-64
2023/04/22 12:59:54;;;;;;;;;;;16.20;99.90;;;;;;7333354;19;109674;-67
2023/04/22 13:02:21;;;;;;;;;;;16.20;99.90;;;;;;7336267;19;112907;-65
2023/04/22 13:04:48;;;;;;;;;;;16.20;99.90;;;;;;7329275;19;109615;-68
2023/04/22 13:07:16;;;;;;;;;;;16.30;99.90;;;;;;7331761;19;109219;-69
2023/04/22 13:09:44;;;;;;;;;;;16.30;99.90;;;;;;7334246;19;109282;-68
2023/04/22 13:12:11;;;;;;;;;;;16.30;99.90;;;;;;7331366;19;109523;-68
2023/04/22 13:14:38;;;;;;;;;;;16.30;99.90;;;;;;7333801;19;108531;-68
2023/04/22 13:17:05;;;;;;;;;;;16.30;99.90;;;;;;7339696;19;108448;-68
2023/04/22 13:19:34;;;;;;;;;;;16.30;99.90;;;;;;7339405;19;108930;-71
2023/04/22 13:22:01;;;;;;;;;;;16.30;99.90;;;;;;7340531;19;111297;-70
2023/04/22 13:24:28;;;;;;;;;;;16.30;99.90;;;;;;7337759;19;111258;-70
2023/04/22 13:26:56;;;;;;;;;;;16.20;99.90;;;;;;7338869;19;109735;-69
2023/04/22 13:29:23;;;;;;;;;;;16.20;99.90;;;;;;7338543;19;109467;-70
2023/04/22 13:31:50;;;;;;;;;;;16.20;99.90;;;;;;7339539;19;109171;-69
2023/04/22 13:34:17;;;;;;;;;;;16.20;99.90;;;;;;7339401;19;110148;-68
2023/04/22 13:36:44;;;;;;;;;;;16.20;99.90;;;;;;7343611;19;109028;-68
2023/04/22 13:39:12;;;;;;;;;;;16.20;99.90;;;;;;7340160;19;109434;-68
2023/04/22 13:41:39;;;;;;;;;;;16.20;99.90;;;;;;7340164;19;108661;-68
2023/04/22 13:44:06;;;;;;;;;;;16.20;99.90;;;;;;7339814;19;109862;-68
2023/04/22 13:46:33;;;;;;;;;;;16.20;99.90;;;;;;7339958;19;108774;-68
2023/04/22 13:49:00;;;;;;;;;;;16.20;99.90;;;;;;7334874;19;109368;-68
2023/04/22 13:51:28;;;;;;;;;;;16.20;99.90;;;;;;7339133;19;109698;-69
2023/04/22 13:53:55;;;;;;;;;;;16.20;99.90;;;;;;7331514;19;109742;-68
2023/04/22 13:56:23;;;;;;;;;;;16.20;99.90;;;;;;7340963;19;109925;-68
2023/04/22 13:58:50;;;;;;;;;;;16.20;99.90;;;;;;7343568;19;109112;-69
2023/04/22 14:01:17;;;;;;;;;;;16.20;99.90;;;;;;7336862;19;110045;-69
2023/04/22 14:03:45;;;;;;;;;;;16.10;99.90;;;;;;7338665;19;109383;-68
2023/04/22 14:06:13;;;;;;;;;;;16.10;99.90;;;;;;7340064;19;109304;-69
2023/04/22 14:08:40;;;;;;;;;;;16.10;99.90;;;;;;7340257;19;108501;-68
2023/04/22 14:11:07;;;;;;;;;;;16.00;99.90;;;;;;7340609;19;110220;-71
2023/04/22 14:13:34;;;;;;;;;;;16.00;99.90;;;;;;7338062;19;108993;-70
2023/04/22 14:16:02;;;;;;;;;;;16.00;99.90;;;;;;7339750;19;108452;-77
2023/04/22 14:18:30;;;;;;;;;;;16.00;99.90;;;;;;7337921;19;109895;-73